X  Sluiten METAR luchtvaart weer gegevens      EBBR Brussels Airport
Temperatuur
9°C Temperatuur
7°C Dauwpunt
87% Vochtigheid



Wind
13 KM/U
8 MPH
4 M/S
7 KTS



280°
W
Huidig weer

Lichte Buien, Regen Lichte Buien, Regen
Luchtdruk 999.92 (hPa) - 29.53 (inHg)
Zicht 6.2 (mijl) - 10 (km)
Vliegveld
Vliegveld code EBBR

Locatie : Brussels Airport
Afstand: 10 (km)

Metar:
EBBR 270150Z 28007KT 9999 -SHRA FEW030CB 09/07 Q1000 TEMPO 4000 SHRA

Tijd: 27-09-2022 03:50 CEST